Time;durP1;ratioP1;P1;durP2;ratioP2;P2;SDS_P1;SDS_P2;PMS_P1;PMS_P2;Temp;Humidity;BMP_temperature;BMP_pressure;BME280_temperature;BME280_humidity;BME280_pressure;Samples;Min_cycle;Max_cycle;Signal;HPM_P1;HPM_P2
2023/05/21 00:01:15;;;;;;;;;14.67;14.00;;;;;16.57;72.87;101451.31;5067551;28;45282;-73
2023/05/21 00:03:44;;;;;;;;;13.33;11.67;;;;;16.83;72.54;101502.25;5055237;28;45327;-74
2023/05/21 00:06:12;;;;;;;;;14.00;12.33;;;;;16.75;73.04;101491.19;5060673;28;46963;-73
2023/05/21 00:08:38;;;;;;;;;17.00;14.00;;;;;16.81;73.54;101494.34;5067522;28;45292;-74
2023/05/21 00:11:04;;;;;;;;;13.00;12.00;;;;;16.73;72.66;101475.25;5042698;28;45376;-74
2023/05/21 00:13:30;;;;;;;;;16.00;13.67;;;;;16.82;72.58;101481.84;5055103;28;46112;-74
2023/05/21 00:15:55;;;;;;;;;13.33;11.00;;;;;16.76;72.95;101475.06;5049775;28;45317;-74
2023/05/21 00:18:21;;;;;;;;;15.00;13.00;;;;;16.81;72.94;101496.16;5060200;28;45325;-74
2023/05/21 00:20:46;;;;;;;;;11.00;11.00;;;;;16.74;74.71;101490.31;5060465;28;45522;-74
2023/05/21 00:23:11;;;;;;;;;18.00;15.00;;;;;16.35;74.21;101420.63;5059632;28;47064;-74
2023/05/21 00:25:37;;;;;;;;;13.67;13.67;;;;;16.56;73.79;101467.41;5060210;28;45483;-74
2023/05/21 00:28:02;;;;;;;;;17.33;14.67;;;;;16.68;73.08;101493.38;5059257;28;45257;-74
2023/05/21 00:30:28;;;;;;;;;19.33;14.67;;;;;16.60;74.92;101474.28;5060167;28;45269;-74
2023/05/21 00:32:53;;;;;;;;;16.00;14.67;;;;;16.23;74.11;101416.06;5058914;28;45343;-74
2023/05/21 00:35:18;;;;;;;;;13.33;12.33;;;;;16.60;74.96;101487.63;5046301;28;45504;-74
2023/05/21 00:37:44;;;;;;;;;17.33;16.33;;;;;16.53;74.52;101475.56;5057815;28;45413;-74
2023/05/21 00:40:10;;;;;;;;;15.00;14.33;;;;;16.49;73.88;101476.75;5069752;28;45195;-74
2023/05/21 00:42:40;;;;;;;;;15.67;15.33;;;;;16.45;75.58;101472.53;5071376;28;45475;-74
2023/05/21 00:45:06;;;;;;;;;17.50;16.00;;;;;16.47;76.45;101475.94;5059656;28;45259;-74
2023/05/21 00:47:33;;;;;;;;;15.00;15.00;;;;;16.44;75.64;101468.13;5059745;28;45650;-74
2023/05/21 00:49:58;;;;;;;;;20.33;14.67;;;;;16.37;76.14;101456.09;5053645;28;45822;-74
2023/05/21 00:52:25;;;;;;;;;18.33;16.33;;;;;16.32;75.87;101452.88;5058966;28;46137;-73
2023/05/21 00:54:51;;;;;;;;;19.67;14.67;;;;;16.26;76.50;101454.09;5061440;28;45580;-74
2023/05/21 00:57:24;;;;;;;;;17.67;16.33;;;;;16.32;75.84;101455.53;5077645;28;45429;-74
2023/05/21 00:59:51;;;;;;;;;20.33;17.33;;;;;16.29;75.49;101463.72;5060807;28;45400;-73
2023/05/21 01:02:17;;;;;;;;;19.50;17.75;;;;;16.27;75.51;101454.94;5058837;28;46719;-74
2023/05/21 01:04:44;;;;;;;;;19.00;17.67;;;;;16.20;76.32;101456.28;5072377;28;45477;-74
2023/05/21 01:07:09;;;;;;;;;18.00;16.00;;;;;15.82;75.59;101395.38;5064389;28;45468;-74
2023/05/21 01:09:35;;;;;;;;;18.25;17.00;;;;;16.22;77.40;101457.91;5064536;28;45615;-72
2023/05/21 01:12:00;;;;;;;;;19.00;17.50;;;;;16.16;77.84;101448.44;5057676;28;45543;-74
2023/05/21 01:14:26;;;;;;;;;27.50;20.00;;;;;15.92;76.25;101414.38;5053695;28;45288;-74
2023/05/21 01:16:52;;;;;;;;;20.75;18.00;;;;;16.12;76.49;101452.25;5060733;28;45235;-74
2023/05/21 01:19:20;;;;;;;;;22.50;18.75;;;;;16.11;77.49;101460.34;5051808;28;45386;-74
2023/05/21 01:21:49;;;;;;;;;19.25;18.00;;;;;16.10;78.53;101456.81;5073643;27;45694;-74
2023/05/21 01:24:15;;;;;;;;;21.67;20.67;;;;;16.09;78.37;101456.91;5062110;28;45405;-74
2023/05/21 01:26:42;;;;;;;;;17.00;15.00;;;;;16.02;77.89;101444.88;5061875;28;45290;-74
2023/05/21 01:29:12;;;;;;;;;21.00;18.67;;;;;16.06;77.93;101447.28;5066592;28;45258;-74
2023/05/21 01:32:09;;;;;;;;;23.75;21.75;;;;;16.06;78.11;101460.63;5064979;27;45860;-74
2023/05/21 01:35:02;;;;;;;;;17.33;16.33;;;;;16.03;77.89;101463.47;5076140;28;45324;-74
2023/05/21 01:37:41;;;;;;;;;22.50;20.25;;;;;16.02;78.20;101466.22;5057707;28;45619;-74
2023/05/21 01:40:09;;;;;;;;;21.67;20.00;;;;;16.00;80.01;101463.63;5057027;28;45306;-74
2023/05/21 01:42:37;;;;;;;;;23.25;18.25;;;;;15.94;80.20;101448.00;5041074;28;45457;-73
2023/05/21 01:45:06;;;;;;;;;18.33;18.00;;;;;15.95;78.65;101452.41;5068688;28;45762;-74
2023/05/21 01:47:33;;;;;;;;;23.25;23.25;;;;;15.82;79.32;101429.19;5059786;28;45267;-74
2023/05/21 01:50:00;;;;;;;;;22.33;18.67;;;;;16.02;79.39;101461.75;5071505;28;45982;-74
2023/05/21 01:52:25;;;;;;;;;22.00;21.00;;;;;15.81;80.45;101428.34;5064705;28;46951;-74
2023/05/21 01:54:53;;;;;;;;;22.50;22.00;;;;;16.03;81.49;101454.63;5057386;28;45435;-74
2023/05/21 01:57:18;;;;;;;;;23.67;22.00;;;;;15.99;80.20;101455.75;5057607;28;45607;-74
2023/05/21 01:59:44;;;;;;;;;21.33;19.00;;;;;16.01;79.32;101461.84;5055326;28;45240;-74
2023/05/21 02:02:09;;;;;;;;;20.67;19.67;;;;;15.98;79.49;101454.88;5049466;28;45263;-74
2023/05/21 02:04:36;;;;;;;;;24.75;21.00;;;;;15.95;78.62;101455.06;5056660;28;45416;-74
2023/05/21 02:07:01;;;;;;;;;20.25;20.25;;;;;16.04;79.45;101465.19;5061239;28;45459;-74
2023/05/21 02:09:26;;;;;;;;;25.00;22.75;;;;;16.02;78.81;101459.09;5061856;28;45346;-74
2023/05/21 02:11:52;;;;;;;;;22.75;22.75;;;;;15.93;79.30;101440.97;5068801;28;45330;-74
2023/05/21 02:14:17;;;;;;;;;22.00;21.75;;;;;15.99;79.25;101451.28;5068626;28;45251;-74
2023/05/21 02:16:43;;;;;;;;;24.75;23.50;;;;;16.04;79.27;101454.50;5064125;28;45226;-73
2023/05/21 02:19:09;;;;;;;;;23.50;23.25;;;;;16.06;79.70;101451.75;5061685;28;46033;-74
2023/05/21 02:21:35;;;;;;;;;22.25;21.75;;;;;16.09;80.19;101454.25;5060268;28;46084;-74
2023/05/21 02:24:00;;;;;;;;;21.50;15.50;;;;;16.03;80.71;101446.63;5059774;28;45248;-74
2023/05/21 02:26:26;;;;;;;;;25.25;23.25;;;;;16.02;78.97;101448.41;5048389;28;45185;-73
2023/05/21 02:28:54;;;;;;;;;21.25;21.25;;;;;16.07;79.53;101465.00;5051060;28;45402;-74
2023/05/21 02:31:19;;;;;;;;;27.50;22.75;;;;;16.06;80.73;101457.97;5070537;28;45539;-74
2023/05/21 02:33:45;;;;;;;;;20.67;18.33;;;;;16.05;79.68;101447.38;5054653;28;45403;-74
2023/05/21 02:36:11;;;;;;;;;24.25;23.50;;;;;16.08;79.17;101463.19;5061863;28;45384;-74
2023/05/21 02:38:39;;;;;;;;;21.00;21.00;;;;;16.05;79.90;101466.91;5061545;28;45456;-74
2023/05/21 02:41:05;;;;;;;;;25.75;24.25;;;;;16.02;79.67;101467.09;5052207;28;45266;-74
2023/05/21 02:43:31;;;;;;;;;26.75;24.25;;;;;16.03;80.55;101465.28;5063338;28;45323;-74
2023/05/21 02:45:56;;;;;;;;;27.00;22.50;;;;;15.99;80.41;101459.28;5059064;28;45439;-74
2023/05/21 02:48:21;;;;;;;;;28.75;25.50;;;;;15.92;81.95;101449.03;5062168;28;45230;-74
2023/05/21 02:50:46;;;;;;;;;22.00;20.75;;;;;15.98;80.38;101459.34;5052581;28;45263;-74
2023/05/21 02:53:12;;;;;;;;;25.00;22.75;;;;;15.57;82.07;101405.78;5064058;28;46066;-74
2023/05/21 02:55:37;;;;;;;;;25.00;22.00;;;;;15.89;82.73;101457.22;5059932;28;45455;-74
2023/05/21 02:58:02;;;;;;;;;26.00;23.00;;;;;15.78;82.05;101443.66;5062198;28;45464;-72
2023/05/21 03:00:28;;;;;;;;;31.75;25.75;;;;;15.44;82.91;101392.28;5051737;28;45302;-74
2023/05/21 03:02:53;;;;;;;;;29.25;23.25;;;;;15.78;82.20;101460.53;5050479;27;45284;-74
2023/05/21 03:05:18;;;;;;;;;29.00;26.50;;;;;15.77;82.62;101453.44;5065022;28;45239;-74
2023/05/21 03:07:44;;;;;;;;;23.50;22.75;;;;;15.76;82.31;101454.44;5067583;28;45285;-74
2023/05/21 03:10:09;;;;;;;;;26.75;24.00;;;;;15.73;82.08;101449.28;5061938;28;46140;-74
2023/05/21 03:12:35;;;;;;;;;26.25;24.75;;;;;15.69;82.42;101447.72;5041782;28;45455;-74
2023/05/21 03:15:00;;;;;;;;;23.00;21.00;;;;;15.64;82.13;101455.13;5069249;28;45327;-74
2023/05/21 03:17:25;;;;;;;;;27.00;23.25;;;;;15.66;81.70;101461.25;5076506;28;45541;-74
2023/05/21 03:19:51;;;;;;;;;24.25;23.25;;;;;15.67;81.27;101467.44;5067955;28;47159;-73
2023/05/21 03:22:16;;;;;;;;;29.75;25.75;;;;;15.66;81.79;101471.91;5061207;28;45237;-74
2023/05/21 03:24:43;;;;;;;;;30.75;28.25;;;;;15.67;83.75;101483.44;5062620;28;45436;-74
2023/05/21 03:27:09;;;;;;;;;25.75;25.25;;;;;15.65;83.29;101486.19;5056162;28;45287;-73
2023/05/21 03:29:35;;;;;;;;;30.00;25.75;;;;;15.57;82.38;101472.44;5063969;28;45319;-73
2023/05/21 03:32:01;;;;;;;;;27.25;23.75;;;;;15.49;82.62;101456.00;5066654;28;45242;-73
2023/05/21 03:34:26;;;;;;;;;34.50;28.25;;;;;15.51;83.46;101464.81;5064779;28;45360;-73
2023/05/21 03:36:52;;;;;;;;;26.00;24.00;;;;;15.49;83.75;101470.19;5051444;28;45535;-73
2023/05/21 03:39:17;;;;;;;;;28.50;23.75;;;;;15.43;84.31;101459.00;5072787;28;45480;-73
2023/05/21 03:41:43;;;;;;;;;26.25;25.00;;;;;15.51;85.39;101478.13;5047894;28;45429;-73
2023/05/21 03:44:08;;;;;;;;;30.25;26.50;;;;;15.49;86.15;101480.88;5060170;28;45310;-73
2023/05/21 03:46:34;;;;;;;;;27.50;24.75;;;;;15.46;85.19;101477.47;5057319;28;45503;-73
2023/05/21 03:48:59;;;;;;;;;25.50;24.25;;;;;15.45;85.42;101481.06;5067640;28;45413;-73
2023/05/21 03:51:24;;;;;;;;;29.00;26.00;;;;;15.45;86.63;101483.75;5056643;28;45287;-73
2023/05/21 03:53:50;;;;;;;;;28.75;27.75;;;;;15.35;86.49;101469.22;5070965;27;45810;-73
2023/05/21 03:56:16;;;;;;;;;27.25;25.25;;;;;15.41;86.62;101483.06;5061130;28;45294;-73
2023/05/21 03:58:42;;;;;;;;;30.25;26.25;;;;;15.21;85.53;101450.50;5064668;28;46422;-73
2023/05/21 04:01:07;;;;;;;;;26.00;21.75;;;;;15.34;84.62;101483.50;5067776;28;45428;-73
2023/05/21 04:03:34;;;;;;;;;30.50;28.50;;;;;15.37;87.31;101494.88;5064144;28;45310;-73
2023/05/21 04:06:00;;;;;;;;;25.75;24.00;;;;;15.31;86.43;101489.00;5061877;27;45311;-73
2023/05/21 04:08:26;;;;;;;;;28.75;26.50;;;;;15.34;86.40;101492.38;5069393;28;45430;-73
2023/05/21 04:10:51;;;;;;;;;28.75;27.25;;;;;15.28;85.95;101489.19;5058006;28;45797;-73
2023/05/21 04:13:16;;;;;;;;;31.75;27.50;;;;;15.31;86.02;101489.00;5049871;28;45243;-73
2023/05/21 04:15:43;;;;;;;;;27.25;26.25;;;;;14.93;85.77;101427.19;5067282;28;45326;-73
2023/05/21 04:18:09;;;;;;;;;33.75;28.50;;;;;15.27;86.38;101498.97;5057385;28;45525;-73
2023/05/21 04:20:35;;;;;;;;;25.00;23.50;;;;;15.31;85.22;101503.22;5060415;27;45656;-73
2023/05/21 04:23:01;;;;;;;;;29.75;27.25;;;;;15.31;87.24;101502.34;5071833;28;45297;-73
2023/05/21 04:25:27;;;;;;;;;31.50;30.25;;;;;14.93;84.94;101441.34;5063436;28;45419;-73
2023/05/21 04:27:53;;;;;;;;;29.25;26.50;;;;;15.34;86.29;101508.38;5051629;28;46051;-73
2023/05/21 04:30:19;;;;;;;;;30.50;29.50;;;;;15.34;86.44;101515.50;5068257;28;45414;-73
2023/05/21 04:32:44;;;;;;;;;29.50;26.75;;;;;15.29;85.18;101513.06;5071740;28;45163;-73
2023/05/21 04:35:10;;;;;;;;;32.50;28.25;;;;;15.34;86.64;101521.69;5065383;28;45255;-73
2023/05/21 04:37:40;;;;;;;;;32.50;29.75;;;;;15.36;85.89;101513.59;5059494;28;46279;-73
2023/05/21 04:40:08;;;;;;;;;28.00;26.50;;;;;15.35;84.76;101517.19;5068905;27;45398;-73
2023/05/21 04:42:33;;;;;;;;;28.75;27.75;;;;;15.01;84.42;101465.78;5058247;28;45298;-73
2023/05/21 04:44:58;;;;;;;;;30.00;28.25;;;;;15.37;84.58;101523.31;5057259;28;45422;-73
2023/05/21 04:47:24;;;;;;;;;28.75;26.50;;;;;15.24;83.76;101501.81;5053810;28;45381;-73
2023/05/21 04:49:49;;;;;;;;;28.50;24.00;;;;;15.41;85.68;101522.22;5050820;28;45260;-75
2023/05/21 04:52:15;;;;;;;;;29.00;26.25;;;;;15.40;84.97;101516.00;5054740;28;45247;-73
2023/05/21 04:54:41;;;;;;;;;27.50;25.50;;;;;15.43;83.88;101515.84;5050481;28;46797;-73
2023/05/21 04:57:07;;;;;;;;;29.25;26.75;;;;;15.45;84.25;101510.41;5070024;28;47892;-73
2023/05/21 04:59:34;;;;;;;;;28.50;27.25;;;;;15.46;83.97;101514.81;5073562;28;45593;-73
2023/05/21 05:01:59;;;;;;;;;30.75;26.75;;;;;15.45;84.41;101513.06;5062429;28;45499;-73
2023/05/21 05:04:25;;;;;;;;;28.50;26.00;;;;;15.36;86.45;101498.47;5059559;28;45409;-73
2023/05/21 05:06:51;;;;;;;;;22.75;20.50;;;;;15.46;85.43;101509.47;5054411;28;45429;-73
2023/05/21 05:09:17;;;;;;;;;26.50;25.50;;;;;15.52;85.87;101523.34;5070713;28;45317;-74
2023/05/21 05:11:42;;;;;;;;;26.75;25.75;;;;;15.34;84.13;101484.38;5068778;28;45227;-73
2023/05/21 05:14:07;;;;;;;;;30.25;24.00;;;;;15.19;85.43;101458.56;5066298;28;45182;-73
2023/05/21 05:16:34;;;;;;;;;25.75;22.50;;;;;15.57;85.52;101507.94;5050080;28;46065;-73
2023/05/21 05:18:59;;;;;;;;;30.25;27.00;;;;;15.57;85.65;101502.59;5056640;28;47044;-73
2023/05/21 05:21:25;;;;;;;;;32.00;26.50;;;;;15.58;85.01;101508.81;5059212;28;45345;-73
2023/05/21 05:23:50;;;;;;;;;28.50;27.50;;;;;15.48;84.63;101483.59;5062398;28;45303;-73
2023/05/21 05:26:16;;;;;;;;;26.75;26.75;;;;;15.55;83.66;101506.31;5055867;28;45861;-73
2023/05/21 05:28:41;;;;;;;;;23.25;22.00;;;;;15.59;84.96;101508.72;5044776;28;45287;-73
2023/05/21 05:31:07;;;;;;;;;25.50;25.25;;;;;15.67;84.13;101516.31;5061245;27;45280;-73
2023/05/21 05:33:32;;;;;;;;;31.00;25.50;;;;;15.60;84.85;101504.25;5060831;28;45420;-73
2023/05/21 05:35:58;;;;;;;;;24.25;22.75;;;;;15.67;83.90;101521.63;5059591;28;45528;-73
2023/05/21 05:38:23;;;;;;;;;32.00;30.25;;;;;15.66;83.70;101516.38;5058761;28;46067;-73
2023/05/21 05:40:49;;;;;;;;;31.75;27.50;;;;;15.67;84.55;101520.78;5067763;28;45302;-73
2023/05/21 05:43:14;;;;;;;;;30.75;30.75;;;;;15.73;83.65;101515.94;5055836;28;45358;-73
2023/05/21 05:45:39;;;;;;;;;29.75;28.25;;;;;15.74;83.19;101524.81;5062896;28;45841;-73
2023/05/21 05:48:05;;;;;;;;;30.25;28.75;;;;;15.77;83.80;101514.81;5049172;28;45357;-73
2023/05/21 05:50:31;;;;;;;;;32.25;29.75;;;;;15.79;83.69;101520.06;5069035;28;45380;-73
2023/05/21 05:52:56;;;;;;;;;30.50;30.00;;;;;15.80;82.26;101505.78;5062878;28;45460;-73
2023/05/21 05:55:23;;;;;;;;;28.50;28.00;;;;;15.84;82.46;101517.97;5062141;28;45628;-73
2023/05/21 05:57:49;;;;;;;;;31.00;26.25;;;;;15.79;83.05;101506.72;5048381;28;45410;-73
2023/05/21 06:00:15;;;;;;;;;28.25;23.00;;;;;15.91;80.83;101522.88;5068768;28;45173;-72
2023/05/21 06:02:41;;;;;;;;;38.50;31.25;;;;;15.94;81.48;101512.03;5073311;28;45782;-73
2023/05/21 06:05:07;;;;;;;;;36.75;31.25;;;;;16.04;82.44;101512.34;5057920;28;45228;-73
2023/05/21 06:07:32;;;;;;;;;27.25;27.25;;;;;16.14;80.84;101518.88;5060105;28;45386;-73
2023/05/21 06:09:58;;;;;;;;;35.00;29.50;;;;;16.20;82.03;101526.50;5054151;28;45499;-73
2023/05/21 06:12:24;;;;;;;;;35.25;28.00;;;;;16.27;79.96;101524.34;5053321;28;45401;-73
2023/05/21 06:14:50;;;;;;;;;28.75;26.00;;;;;16.24;81.92;101498.69;5064025;28;45419;-73
2023/05/21 06:17:15;;;;;;;;;30.50;24.75;;;;;16.45;80.81;101520.59;5053277;28;45279;-73
2023/05/21 06:19:41;;;;;;;;;23.00;20.75;;;;;16.61;79.64;101524.94;5058151;28;45240;-73
2023/05/21 06:22:06;;;;;;;;;26.25;25.25;;;;;16.60;79.45;101520.56;5052552;28;45532;-73
2023/05/21 06:24:31;;;;;;;;;24.50;21.75;;;;;16.55;78.52;101529.81;5072556;28;45356;-73
2023/05/21 06:26:56;;;;;;;;;27.75;25.75;;;;;16.32;79.03;101496.44;5058964;28;45243;-73
2023/05/21 06:29:22;;;;;;;;;23.75;22.50;;;;;16.36;79.00;101510.47;5062621;28;45240;-73
2023/05/21 06:31:48;;;;;;;;;31.00;25.25;;;;;16.29;80.10;101487.75;5067633;28;45481;-73
2023/05/21 06:34:13;;;;;;;;;30.50;25.75;;;;;16.49;81.93;101517.63;5073145;28;46720;-73
2023/05/21 06:36:39;;;;;;;;;24.00;23.00;;;;;16.39;80.98;101488.94;5062311;28;45608;-73
2023/05/21 06:39:04;;;;;;;;;28.50;27.00;;;;;16.59;80.40;101513.47;5075124;28;45386;-73
2023/05/21 06:41:30;;;;;;;;;28.25;26.00;;;;;16.70;79.91;101526.19;5059662;28;45466;-73
2023/05/21 06:43:55;;;;;;;;;24.25;20.50;;;;;16.78;79.16;101521.25;5064279;28;46253;-73
2023/05/21 06:46:21;;;;;;;;;26.00;26.00;;;;;16.72;77.91;101494.06;5066140;28;45309;-73
2023/05/21 06:48:46;;;;;;;;;27.50;23.75;;;;;17.04;76.53;101530.31;5057801;28;45325;-73
2023/05/21 06:51:12;;;;;;;;;26.25;23.50;;;;;17.20;76.58;101523.06;5058611;28;46470;-73
2023/05/21 06:53:37;;;;;;;;;27.25;24.25;;;;;17.32;76.00;101518.72;5052193;28;45925;-73
2023/05/21 06:56:03;;;;;;;;;31.75;26.25;;;;;17.51;74.04;101519.25;5057413;28;45328;-73
2023/05/21 06:58:30;;;;;;;;;27.75;23.50;;;;;17.66;73.84;101527.22;5060680;28;45324;-73
2023/05/21 07:00:58;;;;;;;;;25.75;24.25;;;;;17.57;74.63;101487.66;5064886;28;45399;-74
2023/05/21 07:03:24;;;;;;;;;26.00;22.67;;;;;17.74;72.69;101491.91;5066164;28;45351;-73
2023/05/21 07:05:50;;;;;;;;;26.75;25.25;;;;;18.03;72.82;101514.09;5045953;28;45524;-73
2023/05/21 07:08:15;;;;;;;;;25.67;22.67;;;;;18.05;71.62;101491.59;5053303;28;45357;-73
2023/05/21 07:10:41;;;;;;;;;31.00;27.75;;;;;18.37;72.31;101518.00;5063312;28;45554;-73
2023/05/21 07:13:06;;;;;;;;;25.75;24.50;;;;;18.05;70.11;101459.47;5059294;28;45969;-73
2023/05/21 07:15:32;;;;;;;;;29.67;24.00;;;;;18.50;70.89;101524.28;5063015;28;45449;-73
2023/05/21 07:17:57;;;;;;;;;29.25;24.25;;;;;18.57;69.78;101525.56;5053675;28;45244;-72
2023/05/21 07:20:22;;;;;;;;;23.75;22.75;;;;;18.53;70.81;101511.53;5068899;28;45503;-72
2023/05/21 07:22:48;;;;;;;;;28.67;25.67;;;;;18.56;69.66;101491.69;5063159;27;46491;-72
2023/05/21 07:25:13;;;;;;;;;25.50;25.50;;;;;18.86;69.35;101527.06;5055316;28;45397;-73
2023/05/21 07:27:38;;;;;;;;;23.25;23.25;;;;;18.93;68.21;101533.72;5060049;28;45455;-73
2023/05/21 07:30:04;;;;;;;;;24.33;21.67;;;;;18.99;67.19;101527.94;5058918;28;46476;-74
2023/05/21 07:32:30;;;;;;;;;25.25;25.00;;;;;18.95;67.83;101528.25;5063876;28;45528;-73
2023/05/21 07:34:55;;;;;;;;;26.00;24.67;;;;;18.93;67.36;101531.06;5060359;28;45566;-73
2023/05/21 07:37:21;;;;;;;;;23.00;23.00;;;;;18.97;69.21;101516.47;5060799;28;45362;-73
2023/05/21 07:39:46;;;;;;;;;28.75;25.75;;;;;19.00;67.68;101524.28;5063835;28;45347;-73
2023/05/21 07:42:12;;;;;;;;;23.67;21.67;;;;;19.04;68.13;101524.94;5061869;28;46057;-73
2023/05/21 07:44:37;;;;;;;;;22.67;21.67;;;;;19.15;68.18;101516.97;5059952;28;45443;-73
2023/05/21 07:47:03;;;;;;;;;23.33;22.33;;;;;19.27;66.85;101516.09;5061209;28;45393;-73
2023/05/21 07:49:28;;;;;;;;;29.33;25.33;;;;;19.36;66.83;101504.72;5059006;28;45257;-73
2023/05/21 07:51:54;;;;;;;;;22.33;22.33;;;;;19.39;66.05;101501.78;5058065;28;48109;-73
2023/05/21 07:54:19;;;;;;;;;23.00;22.33;;;;;19.42;65.12;101500.75;5059808;28;45282;-74
2023/05/21 07:56:44;;;;;;;;;23.67;22.33;;;;;19.61;64.90;101509.16;5058822;28;45412;-74
2023/05/21 07:59:10;;;;;;;;;23.33;21.67;;;;;19.80;64.98;101522.09;5056320;28;45660;-74
2023/05/21 08:01:36;;;;;;;;;19.33;19.33;;;;;19.81;64.44;101503.19;5051014;28;47531;-73
2023/05/21 08:04:04;;;;;;;;;23.67;20.00;;;;;19.91;64.17;101517.63;5053973;28;45200;-73
2023/05/21 08:06:30;;;;;;;;;21.67;20.33;;;;;20.05;63.74;101520.16;5072970;28;47124;-73
2023/05/21 08:08:56;;;;;;;;;18.67;18.67;;;;;19.94;62.85;101501.28;5061860;28;45373;-74
2023/05/21 08:11:22;;;;;;;;;24.00;21.67;;;;;20.01;63.15;101507.91;5061892;27;45993;-74
2023/05/21 08:13:47;;;;;;;;;20.00;18.00;;;;;20.16;62.62;101511.25;5059142;28;45309;-74
2023/05/21 08:16:13;;;;;;;;;21.67;17.33;;;;;20.36;61.89;101517.81;5061939;28;45514;-73
2023/05/21 08:18:38;;;;;;;;;22.33;20.00;;;;;20.48;60.02;101511.53;5068071;28;45314;-73
2023/05/21 08:21:03;;;;;;;;;18.67;17.67;;;;;20.51;62.09;101501.41;5066140;28;45268;-74
2023/05/21 08:23:29;;;;;;;;;20.33;17.67;;;;;20.46;61.67;101491.97;5067272;27;45464;-74
2023/05/21 08:25:54;;;;;;;;;13.33;12.67;;;;;20.49;60.75;101507.84;5049765;28;45401;-73
2023/05/21 08:28:23;;;;;;;;;15.67;14.67;;;;;20.39;59.53;101506.84;5063923;28;45393;-73
2023/05/21 08:30:48;;;;;;;;;18.00;18.00;;;;;20.37;60.61;101503.44;5053729;28;45393;-73
2023/05/21 08:33:14;;;;;;;;;20.00;18.00;;;;;20.36;60.63;101490.97;5061218;28;45878;-74
2023/05/21 08:35:39;;;;;;;;;13.67;12.67;;;;;20.43;60.51;101487.69;5052384;28;45446;-74
2023/05/21 08:38:04;;;;;;;;;19.33;16.33;;;;;20.60;60.43;101491.75;5063141;27;45556;-74
2023/05/21 08:40:30;;;;;;;;;14.00;14.00;;;;;20.76;59.88;101490.44;5054219;28;48080;-73
2023/05/21 08:42:55;;;;;;;;;16.67;12.67;;;;;20.94;59.00;101489.97;5064330;28;45357;-73
2023/05/21 08:45:22;;;;;;;;;13.67;11.67;;;;;21.04;58.42;101496.31;5061225;28;45358;-73
2023/05/21 08:47:53;;;;;;;;;16.00;16.00;;;;;21.02;57.65;101495.56;5058295;28;45206;-73
2023/05/21 08:50:20;;;;;;;;;13.00;11.00;;;;;20.95;56.99;101500.59;5061068;28;45621;-73
2023/05/21 08:52:46;;;;;;;;;12.67;12.67;;;;;20.97;57.29;101495.97;5056901;28;45235;-73
2023/05/21 08:55:12;;;;;;;;;10.33;10.33;;;;;21.22;58.01;101494.88;5049691;28;45289;-74
2023/05/21 08:57:41;;;;;;;;;15.00;14.67;;;;;21.28;58.27;101497.91;5072899;28;45271;-73
2023/05/21 09:00:07;;;;;;;;;17.33;13.00;;;;;21.43;56.22;101489.59;5057349;28;45623;-74
2023/05/21 09:02:35;;;;;;;;;11.00;11.00;;;;;21.45;55.81;101476.84;5057758;28;45403;-73
2023/05/21 09:05:02;;;;;;;;;14.33;12.67;;;;;21.66;56.04;101494.78;5054060;28;45323;-73
2023/05/21 09:07:29;;;;;;;;;13.33;11.00;;;;;21.78;56.11;101491.09;5055781;28;45468;-73
2023/05/21 09:09:59;;;;;;;;;11.67;11.67;;;;;21.89;56.27;101492.03;5059597;28;45323;-73
2023/05/21 09:12:24;;;;;;;;;13.67;12.00;;;;;22.05;56.48;101496.03;5051099;28;45400;-73
2023/05/21 09:14:50;;;;;;;;;17.00;15.00;;;;;22.16;55.05;101484.34;5060896;28;45523;-74
2023/05/21 09:17:16;;;;;;;;;15.67;12.00;;;;;22.00;54.05;101479.41;5071721;28;45301;-72
2023/05/21 09:20:25;;;;;;;;;17.33;15.33;;;;;21.96;53.77;101485.16;5055680;28;46020;-72
2023/05/21 09:22:51;;;;;;;;;14.00;12.33;;;;;22.00;55.28;101479.41;5056525;28;45234;-73
2023/05/21 09:25:23;;;;;;;;;12.33;11.67;;;;;21.98;54.28;101484.06;5057809;28;45204;-72
2023/05/21 09:27:49;;;;;;;;;11.00;11.00;;;;;22.21;54.45;101484.81;5054584;28;45527;-73
2023/05/21 09:30:16;;;;;;;;;15.33;13.67;;;;;22.05;53.96;101482.56;5062637;28;46978;-74
2023/05/21 09:32:43;;;;;;;;;11.67;11.67;;;;;22.16;53.85;101485.19;5057368;28;45379;-73
2023/05/21 09:35:14;;;;;;;;;11.67;11.67;;;;;22.21;54.18;101482.97;5044541;28;45365;-73
2023/05/21 09:37:46;;;;;;;;;15.33;15.00;;;;;22.33;53.61;101481.94;5061393;28;47032;-73
2023/05/21 09:40:12;;;;;;;;;20.67;18.00;;;;;22.41;53.72;101481.28;5053083;28;46248;-73
2023/05/21 09:42:39;;;;;;;;;24.33;21.33;;;;;22.37;53.62;101457.41;5056581;28;45467;-73
2023/05/21 09:45:06;;;;;;;;;20.33;19.67;;;;;22.44;53.99;101480.16;5058137;28;46366;-73
2023/05/21 09:47:32;;;;;;;;;32.67;30.00;;;;;22.39;53.61;101475.16;5060615;28;45316;-74
2023/05/21 09:49:57;;;;;;;;;132.50;106.50;;;;;22.46;52.38;101481.72;5058551;28;45869;-74
2023/05/21 09:52:27;;;;;;;;;18.33;17.33;;;;;22.51;52.86;101495.66;5053015;28;45500;-74
2023/05/21 09:54:52;;;;;;;;;18.00;18.00;;;;;22.48;54.15;101487.81;5057486;28;45415;-74
2023/05/21 09:57:25;;;;;;;;;24.33;24.33;;;;;22.39;53.90;101480.53;5060974;28;45167;-74
2023/05/21 09:59:50;;;;;;;;;41.00;34.75;;;;;22.57;53.27;101467.31;5045217;28;46318;-74
2023/05/21 10:02:19;;;;;;;;;21.67;16.67;;;;;22.76;52.60;101465.63;5063109;28;45290;-73
2023/05/21 10:04:48;;;;;;;;;51.75;42.50;;;;;22.89;53.63;101467.22;5061127;28;45510;-74
2023/05/21 10:07:30;;;;;;;;;52.50;42.00;;;;;22.97;52.01;101468.25;5069867;28;45313;-73
2023/05/21 10:09:57;;;;;;;;;40.50;35.25;;;;;22.94;53.16;101468.53;5056335;28;45582;-74
2023/05/21 10:12:24;;;;;;;;;36.25;32.00;;;;;22.97;53.82;101470.94;5058705;28;45472;-74
2023/05/21 10:14:53;;;;;;;;;39.00;36.00;;;;;23.08;51.97;101465.47;5054738;28;46668;-74
2023/05/21 10:17:19;;;;;;;;;23.33;21.33;;;;;23.14;52.88;101461.34;5061049;28;45263;-74
2023/05/21 10:19:46;;;;;;;;;18.00;18.00;;;;;23.03;50.70;101453.38;5059724;28;45381;-73
2023/05/21 10:22:12;;;;;;;;;36.00;31.33;;;;;23.24;52.34;101465.78;5061618;28;45530;-74
2023/05/21 10:24:39;;;;;;;;;20.67;20.67;;;;;23.22;51.00;101448.91;5057906;28;45421;-74
2023/05/21 10:27:05;;;;;;;;;27.00;27.00;;;;;23.14;52.29;101426.25;5051997;28;45291;-74
2023/05/21 10:29:31;;;;;;;;;21.33;18.33;;;;;23.24;52.34;101424.44;5050315;28;47707;-73
2023/05/21 10:31:59;;;;;;;;;14.33;14.33;;;;;23.17;50.51;101401.69;5071214;27;45962;-74
2023/05/21 10:34:27;;;;;;;;;15.67;14.00;;;;;23.62;50.85;101453.41;5045021;28;45247;-74
2023/05/21 10:36:54;;;;;;;;;43.25;35.50;;;;;23.41;51.04;101441.84;5052400;28;45311;-74
2023/05/21 10:39:22;;;;;;;;;31.50;30.75;;;;;23.55;50.57;101449.56;5054964;28;46024;-75
2023/05/21 10:42:23;;;;;;;;;37.00;30.00;;;;;23.60;51.41;101453.53;5073184;27;45879;-74
2023/05/21 10:45:22;;;;;;;;;18.00;17.00;;;;;23.44;51.55;101449.66;5038886;28;45491;-74
2023/05/21 10:48:25;;;;;;;;;30.67;29.67;;;;;23.34;52.11;101455.88;5061960;28;45448;-74
2023/05/21 10:51:12;;;;;;;;;24.33;24.33;;;;;23.27;52.19;101452.03;5056763;28;45955;-74
2023/05/21 10:53:50;;;;;;;;;16.33;16.00;;;;;23.11;50.78;101429.25;5065172;28;46031;-75
2023/05/21 10:56:43;;;;;;;;;33.00;30.00;;;;;23.15;52.97;101444.19;5054287;27;45518;-75
2023/05/21 10:59:08;;;;;;;;;30.00;25.33;;;;;23.28;51.61;101444.78;5057787;28;45487;-75
2023/05/21 11:01:36;;;;;;;;;31.00;29.00;;;;;23.25;51.65;101439.66;5058071;28;46723;-75
2023/05/21 11:04:06;;;;;;;;;34.50;30.00;;;;;23.48;53.20;101433.06;5061351;28;45295;-75
2023/05/21 11:06:31;;;;;;;;;26.33;23.67;;;;;23.43;52.10;101427.22;5072603;28;45308;-75
2023/05/21 11:09:01;;;;;;;;;22.00;22.00;;;;;23.24;52.64;101410.94;5052949;28;45284;-75